sensor_id;sensor_type;location;lat;lon;timestamp;temperature;humidity
7218;DHT22;3650;53.580;10.094;2022-07-06T00:02:11;17.60;58.10
7218;DHT22;3650;53.580;10.094;2022-07-06T00:04:39;17.60;58.70
7218;DHT22;3650;53.580;10.094;2022-07-06T00:07:06;17.60;58.40
7218;DHT22;3650;53.580;10.094;2022-07-06T00:09:33;17.60;59.00
7218;DHT22;3650;53.580;10.094;2022-07-06T00:12:00;17.60;59.40
7218;DHT22;3650;53.580;10.094;2022-07-06T00:14:27;17.50;60.00
7218;DHT22;3650;53.580;10.094;2022-07-06T00:16:54;17.50;60.00
7218;DHT22;3650;53.580;10.094;2022-07-06T00:19:20;17.60;60.00
7218;DHT22;3650;53.580;10.094;2022-07-06T00:21:48;17.60;60.00
7218;DHT22;3650;53.580;10.094;2022-07-06T00:24:15;17.50;59.40
7218;DHT22;3650;53.580;10.094;2022-07-06T00:26:43;17.50;59.50
7218;DHT22;3650;53.580;10.094;2022-07-06T00:29:10;17.50;59.50
7218;DHT22;3650;53.580;10.094;2022-07-06T00:31:37;17.50;59.70
7218;DHT22;3650;53.580;10.094;2022-07-06T00:34:04;17.50;59.50
7218;DHT22;3650;53.580;10.094;2022-07-06T00:36:30;17.50;59.60
7218;DHT22;3650;53.580;10.094;2022-07-06T00:38:59;17.60;59.30
7218;DHT22;3650;53.580;10.094;2022-07-06T00:41:25;17.50;59.00
7218;DHT22;3650;53.580;10.094;2022-07-06T00:43:53;17.50;58.90
7218;DHT22;3650;53.580;10.094;2022-07-06T00:46:25;17.50;58.70
7218;DHT22;3650;53.580;10.094;2022-07-06T00:48:53;17.50;58.80
7218;DHT22;3650;53.580;10.094;2022-07-06T00:51:22;17.50;58.70
7218;DHT22;3650;53.580;10.094;2022-07-06T00:53:50;17.50;58.60
7218;DHT22;3650;53.580;10.094;2022-07-06T00:56:19;17.50;58.60
7218;DHT22;3650;53.580;10.094;2022-07-06T00:58:46;17.40;60.00
7218;DHT22;3650;53.580;10.094;2022-07-06T01:01:14;17.50;59.10
7218;DHT22;3650;53.580;10.094;2022-07-06T01:03:41;17.50;59.60
7218;DHT22;3650;53.580;10.094;2022-07-06T01:06:08;17.50;60.20
7218;DHT22;3650;53.580;10.094;2022-07-06T01:08:35;17.40;58.70
7218;DHT22;3650;53.580;10.094;2022-07-06T01:11:01;17.40;59.00
7218;DHT22;3650;53.580;10.094;2022-07-06T01:13:31;17.40;58.70
7218;DHT22;3650;53.580;10.094;2022-07-06T01:15:59;17.40;58.50
7218;DHT22;3650;53.580;10.094;2022-07-06T01:18:26;17.40;58.50
7218;DHT22;3650;53.580;10.094;2022-07-06T01:21:07;17.40;58.50
7218;DHT22;3650;53.580;10.094;2022-07-06T01:23:39;17.40;58.40
7218;DHT22;3650;53.580;10.094;2022-07-06T01:26:07;17.40;58.70
7218;DHT22;3650;53.580;10.094;2022-07-06T01:28:34;17.40;58.90
7218;DHT22;3650;53.580;10.094;2022-07-06T01:31:02;17.30;59.20
7218;DHT22;3650;53.580;10.094;2022-07-06T01:33:29;17.40;59.10
7218;DHT22;3650;53.580;10.094;2022-07-06T01:35:55;17.40;59.30
7218;DHT22;3650;53.580;10.094;2022-07-06T01:38:24;17.40;59.40
7218;DHT22;3650;53.580;10.094;2022-07-06T01:40:51;17.40;59.20
7218;DHT22;3650;53.580;10.094;2022-07-06T01:43:18;17.30;59.30
7218;DHT22;3650;53.580;10.094;2022-07-06T01:45:44;17.40;59.40
7218;DHT22;3650;53.580;10.094;2022-07-06T01:48:11;17.40;59.30
7218;DHT22;3650;53.580;10.094;2022-07-06T01:50:38;17.30;59.10
7218;DHT22;3650;53.580;10.094;2022-07-06T01:53:05;17.30;59.10
7218;DHT22;3650;53.580;10.094;2022-07-06T01:55:33;17.30;59.00
7218;DHT22;3650;53.580;10.094;2022-07-06T01:58:00;17.30;59.60
7218;DHT22;3650;53.580;10.094;2022-07-06T02:00:27;17.40;60.00
7218;DHT22;3650;53.580;10.094;2022-07-06T02:02:54;17.30;59.70
7218;DHT22;3650;53.580;10.094;2022-07-06T02:05:20;17.30;59.50
7218;DHT22;3650;53.580;10.094;2022-07-06T02:07:47;17.30;59.80
7218;DHT22;3650;53.580;10.094;2022-07-06T02:10:14;17.30;59.40
7218;DHT22;3650;53.580;10.094;2022-07-06T02:12:42;17.30;59.40
7218;DHT22;3650;53.580;10.094;2022-07-06T02:15:09;17.20;59.60
7218;DHT22;3650;53.580;10.094;2022-07-06T02:17:36;17.20;59.30
7218;DHT22;3650;53.580;10.094;2022-07-06T02:20:04;17.20;59.40
7218;DHT22;3650;53.580;10.094;2022-07-06T02:22:31;17.20;59.70
7218;DHT22;3650;53.580;10.094;2022-07-06T02:24:58;17.20;59.80
7218;DHT22;3650;53.580;10.094;2022-07-06T02:27:25;17.20;60.00
7218;DHT22;3650;53.580;10.094;2022-07-06T02:29:53;17.20;60.30
7218;DHT22;3650;53.580;10.094;2022-07-06T02:32:20;17.20;60.60
7218;DHT22;3650;53.580;10.094;2022-07-06T02:34:47;17.20;60.90
7218;DHT22;3650;53.580;10.094;2022-07-06T02:37:13;17.20;61.50
7218;DHT22;3650;53.580;10.094;2022-07-06T02:39:40;17.20;61.80
7218;DHT22;3650;53.580;10.094;2022-07-06T02:42:07;17.20;61.50
7218;DHT22;3650;53.580;10.094;2022-07-06T02:44:34;17.10;62.50
7218;DHT22;3650;53.580;10.094;2022-07-06T02:47:03;17.10;62.50
7218;DHT22;3650;53.580;10.094;2022-07-06T02:49:30;17.20;62.80
7218;DHT22;3650;53.580;10.094;2022-07-06T02:51:56;17.20;63.00
7218;DHT22;3650;53.580;10.094;2022-07-06T02:54:23;17.10;62.60
7218;DHT22;3650;53.580;10.094;2022-07-06T02:56:50;17.10;63.10
7218;DHT22;3650;53.580;10.094;2022-07-06T02:59:18;17.00;62.90
7218;DHT22;3650;53.580;10.094;2022-07-06T03:01:45;17.00;63.70
7218;DHT22;3650;53.580;10.094;2022-07-06T03:04:14;17.00;63.70
7218;DHT22;3650;53.580;10.094;2022-07-06T03:06:40;17.00;64.10
7218;DHT22;3650;53.580;10.094;2022-07-06T03:09:07;17.00;63.90
7218;DHT22;3650;53.580;10.094;2022-07-06T03:11:34;17.00;63.70
7218;DHT22;3650;53.580;10.094;2022-07-06T03:14:02;17.00;63.40
7218;DHT22;3650;53.580;10.094;2022-07-06T03:16:29;17.00;63.00
7218;DHT22;3650;53.580;10.094;2022-07-06T03:18:56;17.00;62.90
7218;DHT22;3650;53.580;10.094;2022-07-06T03:21:25;17.10;62.80
7218;DHT22;3650;53.580;10.094;2022-07-06T03:23:52;17.10;62.40
7218;DHT22;3650;53.580;10.094;2022-07-06T03:26:19;17.10;61.80
7218;DHT22;3650;53.580;10.094;2022-07-06T03:28:45;17.10;61.70
7218;DHT22;3650;53.580;10.094;2022-07-06T03:31:12;17.10;61.70
7218;DHT22;3650;53.580;10.094;2022-07-06T03:33:39;17.10;61.30
7218;DHT22;3650;53.580;10.094;2022-07-06T03:36:06;17.10;61.20
7218;DHT22;3650;53.580;10.094;2022-07-06T03:38:35;17.10;61.70
7218;DHT22;3650;53.580;10.094;2022-07-06T03:41:03;17.10;62.00
7218;DHT22;3650;53.580;10.094;2022-07-06T03:43:30;17.00;62.50
7218;DHT22;3650;53.580;10.094;2022-07-06T03:45:57;17.10;63.00
7218;DHT22;3650;53.580;10.094;2022-07-06T03:48:23;17.10;63.50
7218;DHT22;3650;53.580;10.094;2022-07-06T03:50:50;17.20;64.00
7218;DHT22;3650;53.580;10.094;2022-07-06T03:53:17;17.20;64.00
7218;DHT22;3650;53.580;10.094;2022-07-06T03:55:45;17.10;63.80
7218;DHT22;3650;53.580;10.094;2022-07-06T03:58:32;17.10;64.30
7218;DHT22;3650;53.580;10.094;2022-07-06T04:00:59;17.20;64.80
7218;DHT22;3650;53.580;10.094;2022-07-06T04:03:26;17.20;64.20
7218;DHT22;3650;53.580;10.094;2022-07-06T04:05:53;17.20;64.10
7218;DHT22;3650;53.580;10.094;2022-07-06T04:08:20;17.20;64.60
7218;DHT22;3650;53.580;10.094;2022-07-06T04:10:48;17.20;64.40
7218;DHT22;3650;53.580;10.094;2022-07-06T04:13:15;17.20;63.60
7218;DHT22;3650;53.580;10.094;2022-07-06T04:15:41;17.20;63.80
7218;DHT22;3650;53.580;10.094;2022-07-06T04:18:08;17.20;64.50
7218;DHT22;3650;53.580;10.094;2022-07-06T04:20:35;17.10;64.90
7218;DHT22;3650;53.580;10.094;2022-07-06T04:23:02;17.10;65.20
7218;DHT22;3650;53.580;10.094;2022-07-06T04:25:29;17.00;65.40
7218;DHT22;3650;53.580;10.094;2022-07-06T04:27:57;17.00;66.50
7218;DHT22;3650;53.580;10.094;2022-07-06T04:30:24;16.90;66.90
7218;DHT22;3650;53.580;10.094;2022-07-06T04:32:51;16.90;67.80
7218;DHT22;3650;53.580;10.094;2022-07-06T04:35:18;16.90;67.00
7218;DHT22;3650;53.580;10.094;2022-07-06T04:37:45;16.90;67.30
7218;DHT22;3650;53.580;10.094;2022-07-06T04:40:12;16.90;67.80
7218;DHT22;3650;53.580;10.094;2022-07-06T04:42:39;16.80;68.90
7218;DHT22;3650;53.580;10.094;2022-07-06T04:45:09;16.80;68.20
7218;DHT22;3650;53.580;10.094;2022-07-06T04:47:36;16.80;68.10
7218;DHT22;3650;53.580;10.094;2022-07-06T04:50:04;16.90;67.80
7218;DHT22;3650;53.580;10.094;2022-07-06T04:52:31;16.90;66.40
7218;DHT22;3650;53.580;10.094;2022-07-06T04:54:58;16.90;65.60
7218;DHT22;3650;53.580;10.094;2022-07-06T04:57:25;16.90;65.70
7218;DHT22;3650;53.580;10.094;2022-07-06T04:59:55;16.90;65.10
7218;DHT22;3650;53.580;10.094;2022-07-06T05:02:23;17.00;64.70
7218;DHT22;3650;53.580;10.094;2022-07-06T05:04:50;17.00;64.70
7218;DHT22;3650;53.580;10.094;2022-07-06T05:07:17;17.00;64.80
7218;DHT22;3650;53.580;10.094;2022-07-06T05:09:44;17.10;64.80
7218;DHT22;3650;53.580;10.094;2022-07-06T05:12:10;17.10;64.40
7218;DHT22;3650;53.580;10.094;2022-07-06T05:14:37;17.10;64.20
7218;DHT22;3650;53.580;10.094;2022-07-06T05:17:04;17.10;64.10
7218;DHT22;3650;53.580;10.094;2022-07-06T05:19:35;17.00;64.90
7218;DHT22;3650;53.580;10.094;2022-07-06T05:22:02;17.10;65.30
7218;DHT22;3650;53.580;10.094;2022-07-06T05:24:29;17.10;65.70
7218;DHT22;3650;53.580;10.094;2022-07-06T05:26:56;17.10;65.40
7218;DHT22;3650;53.580;10.094;2022-07-06T05:29:23;17.10;64.80
7218;DHT22;3650;53.580;10.094;2022-07-06T05:31:50;17.20;64.70
7218;DHT22;3650;53.580;10.094;2022-07-06T05:34:17;17.20;66.00
7218;DHT22;3650;53.580;10.094;2022-07-06T05:36:45;17.10;66.30
7218;DHT22;3650;53.580;10.094;2022-07-06T05:39:12;17.20;65.90
7218;DHT22;3650;53.580;10.094;2022-07-06T05:41:38;17.20;65.80
7218;DHT22;3650;53.580;10.094;2022-07-06T05:44:05;17.20;65.90
7218;DHT22;3650;53.580;10.094;2022-07-06T05:46:32;17.20;65.70
7218;DHT22;3650;53.580;10.094;2022-07-06T05:48:59;17.20;65.90
7218;DHT22;3650;53.580;10.094;2022-07-06T05:51:44;17.20;66.30
7218;DHT22;3650;53.580;10.094;2022-07-06T05:54:11;17.20;67.50
7218;DHT22;3650;53.580;10.094;2022-07-06T05:56:38;17.20;66.30
7218;DHT22;3650;53.580;10.094;2022-07-06T05:59:05;17.20;66.90
7218;DHT22;3650;53.580;10.094;2022-07-06T06:01:32;17.10;68.00
7218;DHT22;3650;53.580;10.094;2022-07-06T06:03:59;17.20;68.10
7218;DHT22;3650;53.580;10.094;2022-07-06T06:06:26;17.20;68.10
7218;DHT22;3650;53.580;10.094;2022-07-06T06:08:54;17.20;69.40
7218;DHT22;3650;53.580;10.094;2022-07-06T06:11:21;17.20;69.40
7218;DHT22;3650;53.580;10.094;2022-07-06T06:13:48;17.20;70.40
7218;DHT22;3650;53.580;10.094;2022-07-06T06:16:15;17.10;70.60
7218;DHT22;3650;53.580;10.094;2022-07-06T06:18:42;17.10;71.60
7218;DHT22;3650;53.580;10.094;2022-07-06T06:21:09;17.00;72.00
7218;DHT22;3650;53.580;10.094;2022-07-06T06:23:36;17.00;73.70
7218;DHT22;3650;53.580;10.094;2022-07-06T06:26:04;16.90;74.40
7218;DHT22;3650;53.580;10.094;2022-07-06T06:28:31;16.90;75.80
7218;DHT22;3650;53.580;10.094;2022-07-06T06:30:58;16.90;77.90
7218;DHT22;3650;53.580;10.094;2022-07-06T06:33:25;16.90;77.80
7218;DHT22;3650;53.580;10.094;2022-07-06T06:35:52;16.80;79.30
7218;DHT22;3650;53.580;10.094;2022-07-06T06:38:21;16.80;79.30
7218;DHT22;3650;53.580;10.094;2022-07-06T06:40:51;16.70;79.20
7218;DHT22;3650;53.580;10.094;2022-07-06T06:43:19;16.80;79.20
7218;DHT22;3650;53.580;10.094;2022-07-06T06:45:46;16.80;78.60
7218;DHT22;3650;53.580;10.094;2022-07-06T06:48:12;16.80;77.50
7218;DHT22;3650;53.580;10.094;2022-07-06T06:50:39;16.80;76.90
7218;DHT22;3650;53.580;10.094;2022-07-06T06:53:06;16.90;77.20
7218;DHT22;3650;53.580;10.094;2022-07-06T06:55:33;16.80;76.30
7218;DHT22;3650;53.580;10.094;2022-07-06T06:58:00;16.80;76.00
7218;DHT22;3650;53.580;10.094;2022-07-06T07:00:28;16.90;78.10
7218;DHT22;3650;53.580;10.094;2022-07-06T07:02:55;16.90;78.10
7218;DHT22;3650;53.580;10.094;2022-07-06T07:05:22;16.90;76.50
7218;DHT22;3650;53.580;10.094;2022-07-06T07:07:48;16.90;76.70
7218;DHT22;3650;53.580;10.094;2022-07-06T07:10:15;16.90;77.40
7218;DHT22;3650;53.580;10.094;2022-07-06T07:12:43;16.90;76.60
7218;DHT22;3650;53.580;10.094;2022-07-06T07:15:10;17.00;74.50
7218;DHT22;3650;53.580;10.094;2022-07-06T07:17:39;16.90;74.30
7218;DHT22;3650;53.580;10.094;2022-07-06T07:20:07;17.00;74.00
7218;DHT22;3650;53.580;10.094;2022-07-06T07:22:34;17.10;73.10
7218;DHT22;3650;53.580;10.094;2022-07-06T07:25:01;17.10;72.30
7218;DHT22;3650;53.580;10.094;2022-07-06T07:27:28;17.10;72.10
7218;DHT22;3650;53.580;10.094;2022-07-06T07:29:55;17.10;72.40
7218;DHT22;3650;53.580;10.094;2022-07-06T07:32:21;17.10;73.80
7218;DHT22;3650;53.580;10.094;2022-07-06T07:34:49;17.10;72.20
7218;DHT22;3650;53.580;10.094;2022-07-06T07:37:16;17.10;72.50
7218;DHT22;3650;53.580;10.094;2022-07-06T07:39:43;17.10;73.00
7218;DHT22;3650;53.580;10.094;2022-07-06T07:42:10;17.20;72.60
7218;DHT22;3650;53.580;10.094;2022-07-06T07:44:37;17.20;72.90
7218;DHT22;3650;53.580;10.094;2022-07-06T07:47:04;17.20;72.10
7218;DHT22;3650;53.580;10.094;2022-07-06T07:49:31;17.20;71.50
7218;DHT22;3650;53.580;10.094;2022-07-06T07:51:59;17.20;70.80
7218;DHT22;3650;53.580;10.094;2022-07-06T07:54:26;17.20;70.00
7218;DHT22;3650;53.580;10.094;2022-07-06T07:56:53;17.20;68.10
7218;DHT22;3650;53.580;10.094;2022-07-06T07:59:21;17.20;66.70
7218;DHT22;3650;53.580;10.094;2022-07-06T08:01:47;17.20;66.50
7218;DHT22;3650;53.580;10.094;2022-07-06T08:04:14;17.20;67.20
7218;DHT22;3650;53.580;10.094;2022-07-06T08:06:41;17.20;66.70
7218;DHT22;3650;53.580;10.094;2022-07-06T08:09:09;17.30;65.30
7218;DHT22;3650;53.580;10.094;2022-07-06T08:11:36;17.20;63.70
7218;DHT22;3650;53.580;10.094;2022-07-06T08:14:03;17.30;63.50
7218;DHT22;3650;53.580;10.094;2022-07-06T08:16:31;17.30;62.80
7218;DHT22;3650;53.580;10.094;2022-07-06T08:18:58;17.30;61.40
7218;DHT22;3650;53.580;10.094;2022-07-06T08:21:24;17.30;61.20
7218;DHT22;3650;53.580;10.094;2022-07-06T08:23:52;17.30;62.00
7218;DHT22;3650;53.580;10.094;2022-07-06T08:26:21;17.40;61.60
7218;DHT22;3650;53.580;10.094;2022-07-06T08:28:48;17.40;60.60
7218;DHT22;3650;53.580;10.094;2022-07-06T08:31:16;17.40;61.20
7218;DHT22;3650;53.580;10.094;2022-07-06T08:33:42;17.50;60.80
7218;DHT22;3650;53.580;10.094;2022-07-06T08:36:10;17.50;61.00
7218;DHT22;3650;53.580;10.094;2022-07-06T08:38:36;17.50;61.30
7218;DHT22;3650;53.580;10.094;2022-07-06T08:41:05;17.50;61.30
7218;DHT22;3650;53.580;10.094;2022-07-06T08:43:34;17.50;61.80
7218;DHT22;3650;53.580;10.094;2022-07-06T08:46:02;17.60;63.00
7218;DHT22;3650;53.580;10.094;2022-07-06T08:48:35;17.60;62.90
7218;DHT22;3650;53.580;10.094;2022-07-06T08:51:02;17.60;62.30
7218;DHT22;3650;53.580;10.094;2022-07-06T08:53:30;17.60;62.50
7218;DHT22;3650;53.580;10.094;2022-07-06T08:55:57;17.60;62.00
7218;DHT22;3650;53.580;10.094;2022-07-06T08:58:24;17.70;61.80
7218;DHT22;3650;53.580;10.094;2022-07-06T09:00:53;17.60;60.60
7218;DHT22;3650;53.580;10.094;2022-07-06T09:03:20;17.60;59.70
7218;DHT22;3650;53.580;10.094;2022-07-06T09:05:48;17.60;60.40
7218;DHT22;3650;53.580;10.094;2022-07-06T09:08:17;17.60;61.30
7218;DHT22;3650;53.580;10.094;2022-07-06T09:10:44;17.60;61.60
7218;DHT22;3650;53.580;10.094;2022-07-06T09:13:11;17.60;63.30
7218;DHT22;3650;53.580;10.094;2022-07-06T09:15:38;17.50;65.40
7218;DHT22;3650;53.580;10.094;2022-07-06T09:18:07;17.50;66.30
7218;DHT22;3650;53.580;10.094;2022-07-06T09:20:34;17.50;67.50
7218;DHT22;3650;53.580;10.094;2022-07-06T09:23:02;17.50;68.40
7218;DHT22;3650;53.580;10.094;2022-07-06T09:25:30;17.50;70.00
7218;DHT22;3650;53.580;10.094;2022-07-06T09:27:58;17.50;68.40
7218;DHT22;3650;53.580;10.094;2022-07-06T09:30:26;17.50;66.20
7218;DHT22;3650;53.580;10.094;2022-07-06T09:32:54;17.40;65.00
7218;DHT22;3650;53.580;10.094;2022-07-06T09:35:23;17.50;66.90
7218;DHT22;3650;53.580;10.094;2022-07-06T09:38:00;17.50;63.50
7218;DHT22;3650;53.580;10.094;2022-07-06T09:40:29;17.50;61.20
7218;DHT22;3650;53.580;10.094;2022-07-06T09:43:08;17.50;61.90
7218;DHT22;3650;53.580;10.094;2022-07-06T09:45:35;17.40;60.60
7218;DHT22;3650;53.580;10.094;2022-07-06T09:48:07;17.40;60.10
7218;DHT22;3650;53.580;10.094;2022-07-06T09:50:47;17.40;59.60
7218;DHT22;3650;53.580;10.094;2022-07-06T09:53:17;17.40;58.70
7218;DHT22;3650;53.580;10.094;2022-07-06T09:55:46;17.50;59.40
7218;DHT22;3650;53.580;10.094;2022-07-06T09:58:14;17.50;60.40
7218;DHT22;3650;53.580;10.094;2022-07-06T10:00:41;17.50;59.80
7218;DHT22;3650;53.580;10.094;2022-07-06T10:03:08;17.60;59.00
7218;DHT22;3650;53.580;10.094;2022-07-06T10:05:38;17.60;58.60
7218;DHT22;3650;53.580;10.094;2022-07-06T10:08:07;17.60;59.50
7218;DHT22;3650;53.580;10.094;2022-07-06T10:10:37;17.70;60.20
7218;DHT22;3650;53.580;10.094;2022-07-06T10:13:04;17.70;59.90
7218;DHT22;3650;53.580;10.094;2022-07-06T10:15:34;17.70;60.60
7218;DHT22;3650;53.580;10.094;2022-07-06T10:18:03;17.80;58.50
7218;DHT22;3650;53.580;10.094;2022-07-06T10:20:32;17.80;57.10
7218;DHT22;3650;53.580;10.094;2022-07-06T10:23:03;17.90;57.70
7218;DHT22;3650;53.580;10.094;2022-07-06T10:25:33;18.00;58.50
7218;DHT22;3650;53.580;10.094;2022-07-06T10:28:00;18.00;58.30
7218;DHT22;3650;53.580;10.094;2022-07-06T10:30:28;18.00;57.80
7218;DHT22;3650;53.580;10.094;2022-07-06T10:32:56;18.00;56.70
7218;DHT22;3650;53.580;10.094;2022-07-06T10:35:25;17.90;56.60
7218;DHT22;3650;53.580;10.094;2022-07-06T10:38:04;17.80;56.40
7218;DHT22;3650;53.580;10.094;2022-07-06T10:40:37;17.80;56.40
7218;DHT22;3650;53.580;10.094;2022-07-06T10:43:21;17.60;54.70
7218;DHT22;3650;53.580;10.094;2022-07-06T10:45:52;17.60;54.70
7218;DHT22;3650;53.580;10.094;2022-07-06T10:48:20;17.40;51.60
7218;DHT22;3650;53.580;10.094;2022-07-06T10:50:50;17.40;51.30
7218;DHT22;3650;53.580;10.094;2022-07-06T10:53:19;17.30;52.10
7218;DHT22;3650;53.580;10.094;2022-07-06T10:55:50;17.30;51.10
7218;DHT22;3650;53.580;10.094;2022-07-06T10:58:39;17.20;51.00
7218;DHT22;3650;53.580;10.094;2022-07-06T11:01:07;17.20;53.30
7218;DHT22;3650;53.580;10.094;2022-07-06T11:03:39;17.10;52.90
7218;DHT22;3650;53.580;10.094;2022-07-06T11:06:12;17.10;52.70
7218;DHT22;3650;53.580;10.094;2022-07-06T11:08:53;17.10;53.60
7218;DHT22;3650;53.580;10.094;2022-07-06T11:11:24;17.10;55.80
7218;DHT22;3650;53.580;10.094;2022-07-06T11:13:53;17.10;55.80
7218;DHT22;3650;53.580;10.094;2022-07-06T11:16:22;17.00;55.70
7218;DHT22;3650;53.580;10.094;2022-07-06T11:19:04;17.00;55.70
7218;DHT22;3650;53.580;10.094;2022-07-06T11:21:45;17.10;57.10
7218;DHT22;3650;53.580;10.094;2022-07-06T11:24:13;17.20;57.90
7218;DHT22;3650;53.580;10.094;2022-07-06T11:26:43;17.20;58.50
7218;DHT22;3650;53.580;10.094;2022-07-06T11:29:12;17.30;58.10
7218;DHT22;3650;53.580;10.094;2022-07-06T11:31:40;17.40;58.40
7218;DHT22;3650;53.580;10.094;2022-07-06T11:34:09;17.50;59.80
7218;DHT22;3650;53.580;10.094;2022-07-06T11:36:36;17.70;59.50
7218;DHT22;3650;53.580;10.094;2022-07-06T11:39:04;17.80;58.70
7218;DHT22;3650;53.580;10.094;2022-07-06T11:41:31;17.90;57.80
7218;DHT22;3650;53.580;10.094;2022-07-06T11:44:00;18.00;56.60
7218;DHT22;3650;53.580;10.094;2022-07-06T11:46:28;18.20;56.90
7218;DHT22;3650;53.580;10.094;2022-07-06T11:48:56;18.30;57.20
7218;DHT22;3650;53.580;10.094;2022-07-06T11:51:24;18.40;57.10
7218;DHT22;3650;53.580;10.094;2022-07-06T11:53:54;18.40;57.00
7218;DHT22;3650;53.580;10.094;2022-07-06T11:56:21;18.40;58.50
7218;DHT22;3650;53.580;10.094;2022-07-06T11:58:51;18.40;58.60
7218;DHT22;3650;53.580;10.094;2022-07-06T12:01:21;18.40;58.60
7218;DHT22;3650;53.580;10.094;2022-07-06T12:03:50;18.40;59.00
7218;DHT22;3650;53.580;10.094;2022-07-06T12:06:18;18.50;58.40
7218;DHT22;3650;53.580;10.094;2022-07-06T12:08:47;18.50;57.10
7218;DHT22;3650;53.580;10.094;2022-07-06T12:11:22;18.60;57.10
7218;DHT22;3650;53.580;10.094;2022-07-06T12:13:49;18.70;60.00
7218;DHT22;3650;53.580;10.094;2022-07-06T12:16:17;18.80;59.10
7218;DHT22;3650;53.580;10.094;2022-07-06T12:18:47;18.90;54.60
7218;DHT22;3650;53.580;10.094;2022-07-06T12:21:16;18.90;54.10
7218;DHT22;3650;53.580;10.094;2022-07-06T12:23:45;19.00;52.00
7218;DHT22;3650;53.580;10.094;2022-07-06T12:26:13;19.10;49.10
7218;DHT22;3650;53.580;10.094;2022-07-06T12:28:41;19.10;47.10
7218;DHT22;3650;53.580;10.094;2022-07-06T12:31:08;19.00;46.40
7218;DHT22;3650;53.580;10.094;2022-07-06T12:33:35;19.00;46.60
7218;DHT22;3650;53.580;10.094;2022-07-06T12:36:13;19.00;48.00
7218;DHT22;3650;53.580;10.094;2022-07-06T12:38:45;19.10;48.30
7218;DHT22;3650;53.580;10.094;2022-07-06T12:41:28;19.30;47.00
7218;DHT22;3650;53.580;10.094;2022-07-06T12:44:06;19.40;45.20
7218;DHT22;3650;53.580;10.094;2022-07-06T12:46:35;19.40;44.90
7218;DHT22;3650;53.580;10.094;2022-07-06T12:49:10;19.40;44.50
7218;DHT22;3650;53.580;10.094;2022-07-06T12:51:56;19.40;44.90
7218;DHT22;3650;53.580;10.094;2022-07-06T12:54:25;19.40;44.30
7218;DHT22;3650;53.580;10.094;2022-07-06T12:57:03;19.30;44.00
7218;DHT22;3650;53.580;10.094;2022-07-06T12:59:32;19.30;44.40
7218;DHT22;3650;53.580;10.094;2022-07-06T13:01:59;19.30;44.80
7218;DHT22;3650;53.580;10.094;2022-07-06T13:04:28;19.40;45.20
7218;DHT22;3650;53.580;10.094;2022-07-06T13:06:59;19.40;44.80
7218;DHT22;3650;53.580;10.094;2022-07-06T13:09:27;19.30;41.70
7218;DHT22;3650;53.580;10.094;2022-07-06T13:11:54;19.30;41.20
7218;DHT22;3650;53.580;10.094;2022-07-06T13:14:21;19.20;41.60
7218;DHT22;3650;53.580;10.094;2022-07-06T13:16:47;19.20;42.60
7218;DHT22;3650;53.580;10.094;2022-07-06T13:19:14;19.10;42.80
7218;DHT22;3650;53.580;10.094;2022-07-06T13:21:41;19.20;43.10
7218;DHT22;3650;53.580;10.094;2022-07-06T13:24:11;19.20;43.10
7218;DHT22;3650;53.580;10.094;2022-07-06T13:26:38;19.30;43.30
7218;DHT22;3650;53.580;10.094;2022-07-06T13:29:05;19.30;43.50
7218;DHT22;3650;53.580;10.094;2022-07-06T13:31:32;19.30;44.70
7218;DHT22;3650;53.580;10.094;2022-07-06T13:33:59;19.30;44.00
7218;DHT22;3650;53.580;10.094;2022-07-06T13:36:26;19.40;44.30
7218;DHT22;3650;53.580;10.094;2022-07-06T13:38:53;19.50;43.70
7218;DHT22;3650;53.580;10.094;2022-07-06T13:41:21;19.60;43.80
7218;DHT22;3650;53.580;10.094;2022-07-06T13:43:48;19.70;42.20
7218;DHT22;3650;53.580;10.094;2022-07-06T13:46:15;19.80;42.00
7218;DHT22;3650;53.580;10.094;2022-07-06T13:48:43;20.00;41.70
7218;DHT22;3650;53.580;10.094;2022-07-06T13:51:11;20.00;39.80
7218;DHT22;3650;53.580;10.094;2022-07-06T13:53:38;20.20;39.40
7218;DHT22;3650;53.580;10.094;2022-07-06T13:56:05;20.20;37.20
7218;DHT22;3650;53.580;10.094;2022-07-06T13:58:35;20.30;37.40
7218;DHT22;3650;53.580;10.094;2022-07-06T14:01:02;20.40;38.30
7218;DHT22;3650;53.580;10.094;2022-07-06T14:03:29;20.40;38.00
7218;DHT22;3650;53.580;10.094;2022-07-06T14:05:57;20.40;37.30
7218;DHT22;3650;53.580;10.094;2022-07-06T14:08:24;20.40;35.90
7218;DHT22;3650;53.580;10.094;2022-07-06T14:10:51;20.40;35.60
7218;DHT22;3650;53.580;10.094;2022-07-06T14:13:18;20.40;35.20
7218;DHT22;3650;53.580;10.094;2022-07-06T14:15:47;20.50;35.60
7218;DHT22;3650;53.580;10.094;2022-07-06T14:18:14;20.50;34.70
7218;DHT22;3650;53.580;10.094;2022-07-06T14:20:43;20.60;34.80
7218;DHT22;3650;53.580;10.094;2022-07-06T14:23:10;20.70;34.80
7218;DHT22;3650;53.580;10.094;2022-07-06T14:25:37;20.70;34.60
7218;DHT22;3650;53.580;10.094;2022-07-06T14:28:04;20.80;33.90
7218;DHT22;3650;53.580;10.094;2022-07-06T14:30:32;20.90;34.00
7218;DHT22;3650;53.580;10.094;2022-07-06T14:33:00;21.00;33.70
7218;DHT22;3650;53.580;10.094;2022-07-06T14:35:27;21.00;33.40
7218;DHT22;3650;53.580;10.094;2022-07-06T14:37:54;21.00;33.60
7218;DHT22;3650;53.580;10.094;2022-07-06T14:40:21;21.00;33.20
7218;DHT22;3650;53.580;10.094;2022-07-06T14:42:48;21.00;32.80
7218;DHT22;3650;53.580;10.094;2022-07-06T14:45:15;20.90;32.00
7218;DHT22;3650;53.580;10.094;2022-07-06T14:47:41;20.90;32.80
7218;DHT22;3650;53.580;10.094;2022-07-06T14:50:09;21.00;32.50
7218;DHT22;3650;53.580;10.094;2022-07-06T14:52:36;21.00;32.30
7218;DHT22;3650;53.580;10.094;2022-07-06T14:55:04;21.00;33.00
7218;DHT22;3650;53.580;10.094;2022-07-06T14:57:31;21.00;33.80
7218;DHT22;3650;53.580;10.094;2022-07-06T14:59:58;20.90;32.00
7218;DHT22;3650;53.580;10.094;2022-07-06T15:02:24;20.90;31.90
7218;DHT22;3650;53.580;10.094;2022-07-06T15:04:51;20.90;31.90
7218;DHT22;3650;53.580;10.094;2022-07-06T15:07:19;20.90;31.90
7218;DHT22;3650;53.580;10.094;2022-07-06T15:09:46;20.80;32.80
7218;DHT22;3650;53.580;10.094;2022-07-06T15:12:13;20.70;32.50
7218;DHT22;3650;53.580;10.094;2022-07-06T15:14:40;20.60;33.30
7218;DHT22;3650;53.580;10.094;2022-07-06T15:17:07;20.60;33.70
7218;DHT22;3650;53.580;10.094;2022-07-06T15:19:34;20.50;34.00
7218;DHT22;3650;53.580;10.094;2022-07-06T15:22:01;20.40;33.60
7218;DHT22;3650;53.580;10.094;2022-07-06T15:24:29;20.40;34.10
7218;DHT22;3650;53.580;10.094;2022-07-06T15:26:56;20.40;34.90
7218;DHT22;3650;53.580;10.094;2022-07-06T15:29:23;20.30;35.10
7218;DHT22;3650;53.580;10.094;2022-07-06T15:31:51;20.20;35.60
7218;DHT22;3650;53.580;10.094;2022-07-06T15:34:17;20.20;35.50
7218;DHT22;3650;53.580;10.094;2022-07-06T15:36:45;20.10;35.50
7218;DHT22;3650;53.580;10.094;2022-07-06T15:39:11;20.00;34.70
7218;DHT22;3650;53.580;10.094;2022-07-06T15:41:40;20.00;34.60
7218;DHT22;3650;53.580;10.094;2022-07-06T15:44:07;19.90;34.40
7218;DHT22;3650;53.580;10.094;2022-07-06T15:46:34;19.90;34.80
7218;DHT22;3650;53.580;10.094;2022-07-06T15:49:02;19.80;35.20
7218;DHT22;3650;53.580;10.094;2022-07-06T15:51:29;19.70;35.50